sensor_id;sensor_type;location;lat;lon;timestamp;P1;durP1;ratioP1;P2;durP2;ratioP2
5979;SDS011;3016;50.308;8.258;2022-07-17T00:00:16;5.10;;;3.20;;
5979;SDS011;3016;50.308;8.258;2022-07-17T00:03:17;3.83;;;2.50;;
5979;SDS011;3016;50.308;8.258;2022-07-17T00:06:18;4.03;;;2.40;;
5979;SDS011;3016;50.308;8.258;2022-07-17T00:09:19;3.20;;;2.40;;
5979;SDS011;3016;50.308;8.258;2022-07-17T00:12:20;3.43;;;2.47;;
5979;SDS011;3016;50.308;8.258;2022-07-17T00:15:21;4.40;;;2.50;;
5979;SDS011;3016;50.308;8.258;2022-07-17T00:18:21;3.80;;;2.40;;
5979;SDS011;3016;50.308;8.258;2022-07-17T00:21:22;5.03;;;2.77;;
5979;SDS011;3016;50.308;8.258;2022-07-17T00:24:23;7.97;;;2.63;;
5979;SDS011;3016;50.308;8.258;2022-07-17T00:27:24;4.67;;;2.80;;
5979;SDS011;3016;50.308;8.258;2022-07-17T00:30:24;3.53;;;2.63;;
5979;SDS011;3016;50.308;8.258;2022-07-17T00:33:25;4.70;;;2.80;;
5979;SDS011;3016;50.308;8.258;2022-07-17T00:36:26;3.50;;;2.90;;
5979;SDS011;3016;50.308;8.258;2022-07-17T00:39:26;3.60;;;2.50;;
5979;SDS011;3016;50.308;8.258;2022-07-17T00:42:27;5.70;;;3.23;;
5979;SDS011;3016;50.308;8.258;2022-07-17T00:45:28;5.77;;;2.60;;
5979;SDS011;3016;50.308;8.258;2022-07-17T00:48:28;3.90;;;2.50;;
5979;SDS011;3016;50.308;8.258;2022-07-17T00:51:30;3.80;;;2.40;;
5979;SDS011;3016;50.308;8.258;2022-07-17T00:54:34;7.00;;;2.67;;
5979;SDS011;3016;50.308;8.258;2022-07-17T00:57:38;4.13;;;3.13;;
5979;SDS011;3016;50.308;8.258;2022-07-17T01:00:41;3.30;;;2.83;;
5979;SDS011;3016;50.308;8.258;2022-07-17T01:03:42;3.43;;;2.87;;
5979;SDS011;3016;50.308;8.258;2022-07-17T01:06:43;5.20;;;2.53;;
5979;SDS011;3016;50.308;8.258;2022-07-17T01:09:44;3.37;;;2.47;;
5979;SDS011;3016;50.308;8.258;2022-07-17T01:12:45;6.60;;;3.33;;
5979;SDS011;3016;50.308;8.258;2022-07-17T01:15:47;7.90;;;2.80;;
5979;SDS011;3016;50.308;8.258;2022-07-17T01:18:48;5.50;;;2.87;;
5979;SDS011;3016;50.308;8.258;2022-07-17T01:21:50;4.27;;;2.70;;
5979;SDS011;3016;50.308;8.258;2022-07-17T01:24:50;4.60;;;2.73;;
5979;SDS011;3016;50.308;8.258;2022-07-17T01:27:51;4.17;;;2.90;;
5979;SDS011;3016;50.308;8.258;2022-07-17T01:30:52;4.73;;;2.70;;
5979;SDS011;3016;50.308;8.258;2022-07-17T01:33:53;4.60;;;2.70;;
5979;SDS011;3016;50.308;8.258;2022-07-17T01:36:53;8.80;;;2.60;;
5979;SDS011;3016;50.308;8.258;2022-07-17T01:39:54;3.10;;;2.60;;
5979;SDS011;3016;50.308;8.258;2022-07-17T01:42:55;5.07;;;2.40;;
5979;SDS011;3016;50.308;8.258;2022-07-17T01:45:56;2.60;;;2.40;;
5979;SDS011;3016;50.308;8.258;2022-07-17T01:48:57;3.47;;;2.47;;
5979;SDS011;3016;50.308;8.258;2022-07-17T01:51:57;3.03;;;2.43;;
5979;SDS011;3016;50.308;8.258;2022-07-17T01:54:59;3.70;;;2.57;;
5979;SDS011;3016;50.308;8.258;2022-07-17T01:58:00;3.90;;;2.40;;
5979;SDS011;3016;50.308;8.258;2022-07-17T02:01:01;4.10;;;2.80;;
5979;SDS011;3016;50.308;8.258;2022-07-17T02:04:02;3.37;;;2.60;;
5979;SDS011;3016;50.308;8.258;2022-07-17T02:07:03;3.43;;;2.60;;
5979;SDS011;3016;50.308;8.258;2022-07-17T02:10:04;5.67;;;2.53;;
5979;SDS011;3016;50.308;8.258;2022-07-17T02:13:10;5.53;;;2.97;;
5979;SDS011;3016;50.308;8.258;2022-07-17T02:16:10;2.60;;;2.30;;
5979;SDS011;3016;50.308;8.258;2022-07-17T02:19:11;3.13;;;2.73;;
5979;SDS011;3016;50.308;8.258;2022-07-17T02:22:12;13.70;;;3.00;;
5979;SDS011;3016;50.308;8.258;2022-07-17T02:25:13;3.80;;;2.70;;
5979;SDS011;3016;50.308;8.258;2022-07-17T02:28:14;5.07;;;2.60;;
5979;SDS011;3016;50.308;8.258;2022-07-17T02:31:14;4.27;;;2.50;;
5979;SDS011;3016;50.308;8.258;2022-07-17T02:34:15;6.40;;;2.80;;
5979;SDS011;3016;50.308;8.258;2022-07-17T02:37:16;2.80;;;2.47;;
5979;SDS011;3016;50.308;8.258;2022-07-17T02:40:16;5.33;;;2.53;;
5979;SDS011;3016;50.308;8.258;2022-07-17T02:43:17;3.00;;;2.30;;
5979;SDS011;3016;50.308;8.258;2022-07-17T02:46:18;4.47;;;2.77;;
5979;SDS011;3016;50.308;8.258;2022-07-17T02:49:18;8.83;;;2.40;;
5979;SDS011;3016;50.308;8.258;2022-07-17T02:52:19;4.00;;;2.97;;
5979;SDS011;3016;50.308;8.258;2022-07-17T02:55:20;3.07;;;2.23;;
5979;SDS011;3016;50.308;8.258;2022-07-17T02:58:21;4.87;;;2.97;;
5979;SDS011;3016;50.308;8.258;2022-07-17T03:01:21;7.00;;;3.03;;
5979;SDS011;3016;50.308;8.258;2022-07-17T03:04:22;3.27;;;2.53;;
5979;SDS011;3016;50.308;8.258;2022-07-17T03:07:23;4.57;;;2.97;;
5979;SDS011;3016;50.308;8.258;2022-07-17T03:10:23;3.00;;;2.70;;
5979;SDS011;3016;50.308;8.258;2022-07-17T03:13:24;5.70;;;2.80;;
5979;SDS011;3016;50.308;8.258;2022-07-17T03:16:25;3.80;;;2.67;;
5979;SDS011;3016;50.308;8.258;2022-07-17T03:19:25;4.70;;;3.27;;
5979;SDS011;3016;50.308;8.258;2022-07-17T03:22:26;7.53;;;3.07;;
5979;SDS011;3016;50.308;8.258;2022-07-17T03:25:27;4.60;;;2.50;;
5979;SDS011;3016;50.308;8.258;2022-07-17T03:28:27;4.67;;;2.93;;
5979;SDS011;3016;50.308;8.258;2022-07-17T03:31:28;3.00;;;2.60;;
5979;SDS011;3016;50.308;8.258;2022-07-17T03:34:29;3.67;;;2.70;;
5979;SDS011;3016;50.308;8.258;2022-07-17T03:37:30;3.27;;;2.70;;
5979;SDS011;3016;50.308;8.258;2022-07-17T03:40:30;3.40;;;2.47;;
5979;SDS011;3016;50.308;8.258;2022-07-17T03:43:31;4.50;;;2.53;;
5979;SDS011;3016;50.308;8.258;2022-07-17T03:46:32;7.43;;;2.73;;
5979;SDS011;3016;50.308;8.258;2022-07-17T03:49:32;3.60;;;2.77;;
5979;SDS011;3016;50.308;8.258;2022-07-17T03:52:33;3.87;;;2.27;;
5979;SDS011;3016;50.308;8.258;2022-07-17T03:55:34;5.63;;;3.00;;
5979;SDS011;3016;50.308;8.258;2022-07-17T03:58:35;4.80;;;2.60;;
5979;SDS011;3016;50.308;8.258;2022-07-17T04:01:36;6.00;;;2.70;;
5979;SDS011;3016;50.308;8.258;2022-07-17T04:04:36;6.27;;;2.80;;
5979;SDS011;3016;50.308;8.258;2022-07-17T04:07:37;4.83;;;2.60;;
5979;SDS011;3016;50.308;8.258;2022-07-17T04:10:40;3.53;;;2.40;;
5979;SDS011;3016;50.308;8.258;2022-07-17T04:13:41;3.20;;;2.50;;
5979;SDS011;3016;50.308;8.258;2022-07-17T04:16:42;5.10;;;2.70;;
5979;SDS011;3016;50.308;8.258;2022-07-17T04:19:43;4.27;;;2.63;;
5979;SDS011;3016;50.308;8.258;2022-07-17T04:22:44;3.30;;;2.80;;
5979;SDS011;3016;50.308;8.258;2022-07-17T04:25:45;3.10;;;2.20;;
5979;SDS011;3016;50.308;8.258;2022-07-17T04:28:49;4.87;;;1.93;;
5979;SDS011;3016;50.308;8.258;2022-07-17T04:31:50;2.47;;;1.97;;
5979;SDS011;3016;50.308;8.258;2022-07-17T04:34:52;5.20;;;1.93;;
5979;SDS011;3016;50.308;8.258;2022-07-17T04:37:53;2.30;;;1.90;;
5979;SDS011;3016;50.308;8.258;2022-07-17T04:40:53;2.10;;;1.30;;
5979;SDS011;3016;50.308;8.258;2022-07-17T04:43:54;1.70;;;1.30;;
5979;SDS011;3016;50.308;8.258;2022-07-17T04:46:54;2.93;;;1.60;;
5979;SDS011;3016;50.308;8.258;2022-07-17T04:49:56;2.63;;;1.93;;
5979;SDS011;3016;50.308;8.258;2022-07-17T04:52:57;3.30;;;1.70;;
5979;SDS011;3016;50.308;8.258;2022-07-17T04:55:58;2.13;;;1.13;;
5979;SDS011;3016;50.308;8.258;2022-07-17T04:58:58;2.50;;;1.47;;
5979;SDS011;3016;50.308;8.258;2022-07-17T05:01:59;2.53;;;1.50;;
5979;SDS011;3016;50.308;8.258;2022-07-17T05:05:00;2.80;;;2.10;;
5979;SDS011;3016;50.308;8.258;2022-07-17T05:08:02;5.67;;;2.10;;
5979;SDS011;3016;50.308;8.258;2022-07-17T05:11:03;4.13;;;1.43;;
5979;SDS011;3016;50.308;8.258;2022-07-17T05:14:04;3.17;;;2.30;;
5979;SDS011;3016;50.308;8.258;2022-07-17T05:17:06;3.13;;;1.90;;
5979;SDS011;3016;50.308;8.258;2022-07-17T05:20:07;2.80;;;2.20;;
5979;SDS011;3016;50.308;8.258;2022-07-17T05:23:08;3.47;;;2.30;;
5979;SDS011;3016;50.308;8.258;2022-07-17T05:26:09;3.70;;;2.20;;
5979;SDS011;3016;50.308;8.258;2022-07-17T05:29:10;4.17;;;2.20;;
5979;SDS011;3016;50.308;8.258;2022-07-17T05:32:10;3.43;;;2.67;;
5979;SDS011;3016;50.308;8.258;2022-07-17T05:35:11;3.80;;;2.20;;
5979;SDS011;3016;50.308;8.258;2022-07-17T05:38:12;3.37;;;2.10;;
5979;SDS011;3016;50.308;8.258;2022-07-17T05:41:12;3.53;;;2.37;;
5979;SDS011;3016;50.308;8.258;2022-07-17T05:44:13;9.10;;;2.43;;
5979;SDS011;3016;50.308;8.258;2022-07-17T05:47:14;3.73;;;2.07;;
5979;SDS011;3016;50.308;8.258;2022-07-17T05:50:14;4.40;;;2.10;;
5979;SDS011;3016;50.308;8.258;2022-07-17T05:53:15;6.03;;;2.70;;
5979;SDS011;3016;50.308;8.258;2022-07-17T05:56:16;4.73;;;1.90;;
5979;SDS011;3016;50.308;8.258;2022-07-17T05:59:16;3.57;;;1.93;;
5979;SDS011;3016;50.308;8.258;2022-07-17T06:02:17;5.13;;;2.27;;
5979;SDS011;3016;50.308;8.258;2022-07-17T06:05:18;2.87;;;1.80;;
5979;SDS011;3016;50.308;8.258;2022-07-17T06:08:18;2.90;;;1.97;;
5979;SDS011;3016;50.308;8.258;2022-07-17T06:11:19;2.80;;;1.50;;
5979;SDS011;3016;50.308;8.258;2022-07-17T06:14:20;5.43;;;2.60;;
5979;SDS011;3016;50.308;8.258;2022-07-17T06:17:20;4.17;;;1.93;;
5979;SDS011;3016;50.308;8.258;2022-07-17T06:20:21;2.07;;;1.30;;
5979;SDS011;3016;50.308;8.258;2022-07-17T06:23:22;2.67;;;1.60;;
5979;SDS011;3016;50.308;8.258;2022-07-17T06:26:22;2.93;;;1.77;;
5979;SDS011;3016;50.308;8.258;2022-07-17T06:29:23;2.50;;;1.70;;
5979;SDS011;3016;50.308;8.258;2022-07-17T06:32:24;2.23;;;1.40;;
5979;SDS011;3016;50.308;8.258;2022-07-17T06:35:25;5.83;;;2.40;;
5979;SDS011;3016;50.308;8.258;2022-07-17T06:38:26;4.30;;;1.73;;
5979;SDS011;3016;50.308;8.258;2022-07-17T06:41:27;3.13;;;1.90;;
5979;SDS011;3016;50.308;8.258;2022-07-17T06:44:27;3.43;;;1.40;;
5979;SDS011;3016;50.308;8.258;2022-07-17T06:47:28;2.47;;;1.50;;
5979;SDS011;3016;50.308;8.258;2022-07-17T06:50:29;3.17;;;2.10;;
5979;SDS011;3016;50.308;8.258;2022-07-17T06:53:29;2.40;;;1.30;;
5979;SDS011;3016;50.308;8.258;2022-07-17T06:56:30;2.77;;;1.67;;
5979;SDS011;3016;50.308;8.258;2022-07-17T06:59:31;2.90;;;1.43;;
5979;SDS011;3016;50.308;8.258;2022-07-17T07:02:31;3.80;;;1.83;;
5979;SDS011;3016;50.308;8.258;2022-07-17T07:05:33;2.63;;;1.50;;
5979;SDS011;3016;50.308;8.258;2022-07-17T07:08:34;3.43;;;1.47;;
5979;SDS011;3016;50.308;8.258;2022-07-17T07:11:36;3.40;;;1.60;;
5979;SDS011;3016;50.308;8.258;2022-07-17T07:14:37;2.97;;;1.30;;
5979;SDS011;3016;50.308;8.258;2022-07-17T07:17:38;2.47;;;1.50;;
5979;SDS011;3016;50.308;8.258;2022-07-17T07:20:40;2.83;;;1.40;;
5979;SDS011;3016;50.308;8.258;2022-07-17T07:23:41;3.07;;;1.50;;
5979;SDS011;3016;50.308;8.258;2022-07-17T07:26:42;3.87;;;1.97;;
5979;SDS011;3016;50.308;8.258;2022-07-17T07:29:42;2.97;;;1.43;;
5979;SDS011;3016;50.308;8.258;2022-07-17T07:32:43;2.83;;;1.47;;
5979;SDS011;3016;50.308;8.258;2022-07-17T07:35:44;2.83;;;1.30;;
5979;SDS011;3016;50.308;8.258;2022-07-17T07:38:44;2.67;;;0.80;;
5979;SDS011;3016;50.308;8.258;2022-07-17T07:41:45;1.77;;;0.93;;
5979;SDS011;3016;50.308;8.258;2022-07-17T07:44:46;2.50;;;1.20;;
5979;SDS011;3016;50.308;8.258;2022-07-17T07:47:47;1.90;;;1.23;;
5979;SDS011;3016;50.308;8.258;2022-07-17T07:50:52;2.47;;;1.47;;
5979;SDS011;3016;50.308;8.258;2022-07-17T07:53:53;2.30;;;1.20;;
5979;SDS011;3016;50.308;8.258;2022-07-17T07:56:53;4.57;;;1.40;;
5979;SDS011;3016;50.308;8.258;2022-07-17T07:59:54;1.97;;;1.10;;
5979;SDS011;3016;50.308;8.258;2022-07-17T08:02:55;6.07;;;1.37;;
5979;SDS011;3016;50.308;8.258;2022-07-17T08:05:55;2.53;;;1.53;;
5979;SDS011;3016;50.308;8.258;2022-07-17T08:08:56;3.90;;;2.13;;
5979;SDS011;3016;50.308;8.258;2022-07-17T08:11:56;7.10;;;1.50;;
5979;SDS011;3016;50.308;8.258;2022-07-17T08:14:57;2.60;;;1.00;;
5979;SDS011;3016;50.308;8.258;2022-07-17T08:17:58;3.47;;;1.07;;
5979;SDS011;3016;50.308;8.258;2022-07-17T08:20:59;2.83;;;1.40;;
5979;SDS011;3016;50.308;8.258;2022-07-17T08:24:00;4.13;;;1.23;;
5979;SDS011;3016;50.308;8.258;2022-07-17T08:27:01;1.90;;;0.80;;
5979;SDS011;3016;50.308;8.258;2022-07-17T08:30:02;2.63;;;1.00;;
5979;SDS011;3016;50.308;8.258;2022-07-17T08:33:05;5.20;;;1.00;;
5979;SDS011;3016;50.308;8.258;2022-07-17T08:36:08;3.20;;;1.30;;
5979;SDS011;3016;50.308;8.258;2022-07-17T08:39:08;4.67;;;1.40;;
5979;SDS011;3016;50.308;8.258;2022-07-17T08:42:09;7.57;;;1.40;;
5979;SDS011;3016;50.308;8.258;2022-07-17T08:45:16;4.30;;;1.83;;
5979;SDS011;3016;50.308;8.258;2022-07-17T08:48:17;4.10;;;1.40;;
5979;SDS011;3016;50.308;8.258;2022-07-17T08:51:18;4.23;;;1.53;;
5979;SDS011;3016;50.308;8.258;2022-07-17T08:54:19;3.70;;;1.30;;
5979;SDS011;3016;50.308;8.258;2022-07-17T08:57:22;2.60;;;1.10;;
5979;SDS011;3016;50.308;8.258;2022-07-17T09:00:23;5.10;;;1.73;;
5979;SDS011;3016;50.308;8.258;2022-07-17T09:03:26;3.60;;;1.60;;
5979;SDS011;3016;50.308;8.258;2022-07-17T09:06:27;4.30;;;1.93;;
5979;SDS011;3016;50.308;8.258;2022-07-17T09:09:27;2.83;;;0.97;;
5979;SDS011;3016;50.308;8.258;2022-07-17T09:12:29;5.30;;;1.17;;
5979;SDS011;3016;50.308;8.258;2022-07-17T09:15:32;2.63;;;1.23;;
5979;SDS011;3016;50.308;8.258;2022-07-17T09:18:43;4.67;;;1.20;;
5979;SDS011;3016;50.308;8.258;2022-07-17T09:21:46;4.90;;;1.30;;
5979;SDS011;3016;50.308;8.258;2022-07-17T09:24:48;3.30;;;1.30;;
5979;SDS011;3016;50.308;8.258;2022-07-17T09:27:53;3.40;;;1.20;;
5979;SDS011;3016;50.308;8.258;2022-07-17T09:30:57;2.73;;;1.07;;
5979;SDS011;3016;50.308;8.258;2022-07-17T09:33:58;4.20;;;1.30;;
5979;SDS011;3016;50.308;8.258;2022-07-17T09:37:00;4.73;;;1.47;;
5979;SDS011;3016;50.308;8.258;2022-07-17T09:40:02;5.13;;;1.87;;
5979;SDS011;3016;50.308;8.258;2022-07-17T09:43:10;2.30;;;1.10;;
5979;SDS011;3016;50.308;8.258;2022-07-17T09:46:15;4.40;;;1.40;;
5979;SDS011;3016;50.308;8.258;2022-07-17T09:49:17;4.47;;;1.10;;
5979;SDS011;3016;50.308;8.258;2022-07-17T09:52:19;3.00;;;1.33;;
5979;SDS011;3016;50.308;8.258;2022-07-17T09:55:29;3.30;;;1.40;;
5979;SDS011;3016;50.308;8.258;2022-07-17T09:58:33;3.80;;;1.20;;
5979;SDS011;3016;50.308;8.258;2022-07-17T10:01:39;4.83;;;1.70;;
5979;SDS011;3016;50.308;8.258;2022-07-17T10:04:41;2.60;;;1.03;;
5979;SDS011;3016;50.308;8.258;2022-07-17T10:07:43;8.03;;;1.50;;
5979;SDS011;3016;50.308;8.258;2022-07-17T10:10:45;2.30;;;1.00;;
5979;SDS011;3016;50.308;8.258;2022-07-17T10:13:47;4.43;;;1.53;;
5979;SDS011;3016;50.308;8.258;2022-07-17T10:16:50;4.90;;;1.30;;
5979;SDS011;3016;50.308;8.258;2022-07-17T10:19:55;3.63;;;1.40;;
5979;SDS011;3016;50.308;8.258;2022-07-17T10:22:57;4.70;;;1.47;;
5979;SDS011;3016;50.308;8.258;2022-07-17T10:25:58;6.60;;;1.27;;
5979;SDS011;3016;50.308;8.258;2022-07-17T10:28:59;3.53;;;1.17;;
5979;SDS011;3016;50.308;8.258;2022-07-17T10:32:00;4.67;;;1.83;;
5979;SDS011;3016;50.308;8.258;2022-07-17T10:35:09;3.67;;;1.30;;
5979;SDS011;3016;50.308;8.258;2022-07-17T10:38:12;5.77;;;1.23;;
5979;SDS011;3016;50.308;8.258;2022-07-17T10:41:19;5.93;;;1.37;;
5979;SDS011;3016;50.308;8.258;2022-07-17T10:44:27;4.37;;;1.00;;
5979;SDS011;3016;50.308;8.258;2022-07-17T10:47:29;3.80;;;1.07;;
5979;SDS011;3016;50.308;8.258;2022-07-17T10:50:54;4.70;;;1.70;;
5979;SDS011;3016;50.308;8.258;2022-07-17T10:53:59;2.60;;;1.23;;
5979;SDS011;3016;50.308;8.258;2022-07-17T10:57:00;4.33;;;1.60;;
5979;SDS011;3016;50.308;8.258;2022-07-17T11:00:04;4.87;;;1.30;;
5979;SDS011;3016;50.308;8.258;2022-07-17T11:06:42;2.70;;;1.37;;
5979;SDS011;3016;50.308;8.258;2022-07-17T11:09:46;3.40;;;1.00;;
5979;SDS011;3016;50.308;8.258;2022-07-17T11:12:48;4.80;;;1.50;;
5979;SDS011;3016;50.308;8.258;2022-07-17T11:15:49;2.90;;;1.20;;
5979;SDS011;3016;50.308;8.258;2022-07-17T11:18:50;5.40;;;1.50;;
5979;SDS011;3016;50.308;8.258;2022-07-17T11:21:51;3.03;;;1.10;;
5979;SDS011;3016;50.308;8.258;2022-07-17T11:24:53;3.83;;;1.33;;
5979;SDS011;3016;50.308;8.258;2022-07-17T11:27:54;3.10;;;1.50;;
5979;SDS011;3016;50.308;8.258;2022-07-17T11:30:54;2.90;;;1.33;;
5979;SDS011;3016;50.308;8.258;2022-07-17T11:33:56;4.60;;;1.27;;
5979;SDS011;3016;50.308;8.258;2022-07-17T11:37:03;3.73;;;1.20;;
5979;SDS011;3016;50.308;8.258;2022-07-17T11:40:06;4.37;;;1.53;;
5979;SDS011;3016;50.308;8.258;2022-07-17T11:43:08;3.37;;;1.33;;
5979;SDS011;3016;50.308;8.258;2022-07-17T11:46:10;7.13;;;1.43;;
5979;SDS011;3016;50.308;8.258;2022-07-17T11:49:25;3.23;;;1.30;;
5979;SDS011;3016;50.308;8.258;2022-07-17T11:52:28;4.27;;;1.33;;
5979;SDS011;3016;50.308;8.258;2022-07-17T11:55:36;5.83;;;1.23;;
5979;SDS011;3016;50.308;8.258;2022-07-17T11:58:43;3.60;;;1.20;;
5979;SDS011;3016;50.308;8.258;2022-07-17T12:01:47;2.57;;;1.20;;
5979;SDS011;3016;50.308;8.258;2022-07-17T12:04:49;2.83;;;1.07;;
5979;SDS011;3016;50.308;8.258;2022-07-17T12:07:54;3.83;;;1.03;;
5979;SDS011;3016;50.308;8.258;2022-07-17T12:11:06;3.90;;;1.50;;
5979;SDS011;3016;50.308;8.258;2022-07-17T12:14:08;3.87;;;1.20;;
5979;SDS011;3016;50.308;8.258;2022-07-17T12:17:10;3.07;;;1.00;;
5979;SDS011;3016;50.308;8.258;2022-07-17T12:20:11;3.43;;;1.10;;
5979;SDS011;3016;50.308;8.258;2022-07-17T12:23:29;4.23;;;0.90;;
5979;SDS011;3016;50.308;8.258;2022-07-17T12:26:40;3.93;;;1.33;;
5979;SDS011;3016;50.308;8.258;2022-07-17T12:29:44;3.37;;;1.20;;
5979;SDS011;3016;50.308;8.258;2022-07-17T12:32:45;2.00;;;1.03;;
5979;SDS011;3016;50.308;8.258;2022-07-17T12:35:47;2.87;;;1.20;;
5979;SDS011;3016;50.308;8.258;2022-07-17T12:38:55;3.53;;;1.40;;
5979;SDS011;3016;50.308;8.258;2022-07-17T12:41:57;2.60;;;1.50;;
5979;SDS011;3016;50.308;8.258;2022-07-17T12:44:58;3.67;;;1.00;;
5979;SDS011;3016;50.308;8.258;2022-07-17T12:47:59;2.93;;;1.27;;
5979;SDS011;3016;50.308;8.258;2022-07-17T12:50:59;2.77;;;1.20;;
5979;SDS011;3016;50.308;8.258;2022-07-17T12:54:00;10.40;;;1.07;;
5979;SDS011;3016;50.308;8.258;2022-07-17T12:57:05;3.00;;;1.10;;
5979;SDS011;3016;50.308;8.258;2022-07-17T13:00:12;2.17;;;1.00;;
5979;SDS011;3016;50.308;8.258;2022-07-17T13:03:14;5.07;;;1.00;;
5979;SDS011;3016;50.308;8.258;2022-07-17T13:06:15;2.40;;;0.80;;
5979;SDS011;3016;50.308;8.258;2022-07-17T13:09:16;5.73;;;0.87;;
5979;SDS011;3016;50.308;8.258;2022-07-17T13:12:16;4.63;;;1.20;;
5979;SDS011;3016;50.308;8.258;2022-07-17T13:15:17;3.93;;;1.00;;
5979;SDS011;3016;50.308;8.258;2022-07-17T13:18:18;3.30;;;0.90;;
5979;SDS011;3016;50.308;8.258;2022-07-17T13:21:19;5.30;;;1.10;;
5979;SDS011;3016;50.308;8.258;2022-07-17T13:24:19;5.20;;;1.13;;
5979;SDS011;3016;50.308;8.258;2022-07-17T13:27:20;2.40;;;0.77;;
5979;SDS011;3016;50.308;8.258;2022-07-17T13:30:21;3.07;;;0.93;;
5979;SDS011;3016;50.308;8.258;2022-07-17T13:33:23;2.03;;;0.77;;
5979;SDS011;3016;50.308;8.258;2022-07-17T13:36:25;3.60;;;1.10;;
5979;SDS011;3016;50.308;8.258;2022-07-17T13:39:25;3.90;;;0.80;;
5979;SDS011;3016;50.308;8.258;2022-07-17T13:42:26;3.40;;;1.03;;
5979;SDS011;3016;50.308;8.258;2022-07-17T13:45:27;2.70;;;0.97;;
5979;SDS011;3016;50.308;8.258;2022-07-17T13:48:28;3.23;;;1.10;;
5979;SDS011;3016;50.308;8.258;2022-07-17T13:51:28;2.10;;;0.80;;
5979;SDS011;3016;50.308;8.258;2022-07-17T13:54:30;4.57;;;1.17;;
5979;SDS011;3016;50.308;8.258;2022-07-17T13:57:30;3.43;;;1.10;;
5979;SDS011;3016;50.308;8.258;2022-07-17T14:00:31;2.30;;;1.00;;
5979;SDS011;3016;50.308;8.258;2022-07-17T14:03:32;2.53;;;0.80;;
5979;SDS011;3016;50.308;8.258;2022-07-17T14:06:33;3.70;;;1.10;;
5979;SDS011;3016;50.308;8.258;2022-07-17T14:09:33;2.67;;;0.97;;
5979;SDS011;3016;50.308;8.258;2022-07-17T14:12:34;2.93;;;1.20;;
5979;SDS011;3016;50.308;8.258;2022-07-17T14:15:35;2.57;;;0.80;;
5979;SDS011;3016;50.308;8.258;2022-07-17T14:18:36;1.93;;;0.70;;
5979;SDS011;3016;50.308;8.258;2022-07-17T14:21:57;2.00;;;0.80;;
5979;SDS011;3016;50.308;8.258;2022-07-17T14:24:58;3.13;;;1.20;;
5979;SDS011;3016;50.308;8.258;2022-07-17T14:27:58;3.80;;;0.80;;
5979;SDS011;3016;50.308;8.258;2022-07-17T14:30:59;3.20;;;1.00;;
5979;SDS011;3016;50.308;8.258;2022-07-17T14:34:00;2.57;;;0.90;;
5979;SDS011;3016;50.308;8.258;2022-07-17T14:37:00;2.40;;;0.57;;
5979;SDS011;3016;50.308;8.258;2022-07-17T14:40:07;3.10;;;0.67;;
5979;SDS011;3016;50.308;8.258;2022-07-17T14:43:09;2.37;;;0.57;;
5979;SDS011;3016;50.308;8.258;2022-07-17T14:46:10;2.10;;;1.00;;
5979;SDS011;3016;50.308;8.258;2022-07-17T14:49:11;2.03;;;0.83;;
5979;SDS011;3016;50.308;8.258;2022-07-17T14:52:11;2.63;;;1.13;;
5979;SDS011;3016;50.308;8.258;2022-07-17T14:55:12;2.40;;;0.90;;
5979;SDS011;3016;50.308;8.258;2022-07-17T14:58:13;4.50;;;1.23;;
5979;SDS011;3016;50.308;8.258;2022-07-17T15:01:14;3.30;;;1.03;;
5979;SDS011;3016;50.308;8.258;2022-07-17T15:04:15;2.70;;;1.00;;
5979;SDS011;3016;50.308;8.258;2022-07-17T15:07:16;2.20;;;0.90;;
5979;SDS011;3016;50.308;8.258;2022-07-17T15:10:17;2.23;;;0.90;;
5979;SDS011;3016;50.308;8.258;2022-07-17T15:13:18;2.30;;;1.00;;
5979;SDS011;3016;50.308;8.258;2022-07-17T15:16:19;2.73;;;0.93;;
5979;SDS011;3016;50.308;8.258;2022-07-17T15:19:19;6.00;;;1.27;;
5979;SDS011;3016;50.308;8.258;2022-07-17T15:22:21;2.47;;;0.93;;
5979;SDS011;3016;50.308;8.258;2022-07-17T15:25:22;2.50;;;1.13;;
5979;SDS011;3016;50.308;8.258;2022-07-17T15:28:22;2.07;;;0.73;;
5979;SDS011;3016;50.308;8.258;2022-07-17T15:31:23;2.37;;;1.07;;
5979;SDS011;3016;50.308;8.258;2022-07-17T15:34:24;2.50;;;1.00;;
5979;SDS011;3016;50.308;8.258;2022-07-17T15:37:25;3.63;;;0.97;;
5979;SDS011;3016;50.308;8.258;2022-07-17T15:40:25;1.87;;;0.63;;
5979;SDS011;3016;50.308;8.258;2022-07-17T15:43:26;6.03;;;1.00;;
5979;SDS011;3016;50.308;8.258;2022-07-17T15:46:27;3.57;;;1.07;;
5979;SDS011;3016;50.308;8.258;2022-07-17T15:49:27;2.13;;;1.10;;
5979;SDS011;3016;50.308;8.258;2022-07-17T15:52:29;2.50;;;1.13;;
5979;SDS011;3016;50.308;8.258;2022-07-17T15:55:29;4.47;;;1.23;;
5979;SDS011;3016;50.308;8.258;2022-07-17T15:58:30;4.93;;;1.53;;
5979;SDS011;3016;50.308;8.258;2022-07-17T16:01:31;2.33;;;0.80;;
5979;SDS011;3016;50.308;8.258;2022-07-17T16:04:31;5.40;;;3.43;;
5979;SDS011;3016;50.308;8.258;2022-07-17T16:07:32;7.47;;;1.00;;
5979;SDS011;3016;50.308;8.258;2022-07-17T16:10:33;2.37;;;0.93;;
5979;SDS011;3016;50.308;8.258;2022-07-17T16:13:34;2.03;;;0.87;;
5979;SDS011;3016;50.308;8.258;2022-07-17T16:16:34;2.00;;;1.07;;
5979;SDS011;3016;50.308;8.258;2022-07-17T16:19:35;2.17;;;1.10;;
5979;SDS011;3016;50.308;8.258;2022-07-17T16:22:36;5.93;;;1.13;;
5979;SDS011;3016;50.308;8.258;2022-07-17T16:25:36;2.07;;;1.10;;
5979;SDS011;3016;50.308;8.258;2022-07-17T16:28:37;3.13;;;1.13;;
5979;SDS011;3016;50.308;8.258;2022-07-17T16:31:38;3.27;;;1.10;;
5979;SDS011;3016;50.308;8.258;2022-07-17T16:34:39;4.13;;;1.20;;
5979;SDS011;3016;50.308;8.258;2022-07-17T16:37:39;3.00;;;1.37;;
5979;SDS011;3016;50.308;8.258;2022-07-17T16:40:40;2.10;;;0.90;;
5979;SDS011;3016;50.308;8.258;2022-07-17T16:43:41;3.60;;;1.20;;
5979;SDS011;3016;50.308;8.258;2022-07-17T16:46:42;2.17;;;1.17;;
5979;SDS011;3016;50.308;8.258;2022-07-17T16:49:42;2.23;;;0.97;;
5979;SDS011;3016;50.308;8.258;2022-07-17T16:52:43;2.57;;;0.90;;
5979;SDS011;3016;50.308;8.258;2022-07-17T16:55:44;2.67;;;1.10;;
5979;SDS011;3016;50.308;8.258;2022-07-17T16:58:45;8.03;;;1.40;;
5979;SDS011;3016;50.308;8.258;2022-07-17T17:01:46;5.40;;;1.30;;
5979;SDS011;3016;50.308;8.258;2022-07-17T17:04:48;2.10;;;1.10;;
5979;SDS011;3016;50.308;8.258;2022-07-17T17:07:48;4.13;;;1.30;;
5979;SDS011;3016;50.308;8.258;2022-07-17T17:10:49;3.00;;;1.00;;
5979;SDS011;3016;50.308;8.258;2022-07-17T17:13:50;3.87;;;1.13;;
5979;SDS011;3016;50.308;8.258;2022-07-17T17:16:51;2.30;;;1.07;;
5979;SDS011;3016;50.308;8.258;2022-07-17T17:19:51;4.50;;;1.20;;
5979;SDS011;3016;50.308;8.258;2022-07-17T17:22:52;3.43;;;1.20;;
5979;SDS011;3016;50.308;8.258;2022-07-17T17:25:53;2.33;;;1.03;;
5979;SDS011;3016;50.308;8.258;2022-07-17T17:28:53;3.10;;;1.10;;
5979;SDS011;3016;50.308;8.258;2022-07-17T17:31:54;2.13;;;1.27;;
5979;SDS011;3016;50.308;8.258;2022-07-17T17:34:55;3.10;;;1.30;;
5979;SDS011;3016;50.308;8.258;2022-07-17T17:37:56;3.67;;;1.50;;
5979;SDS011;3016;50.308;8.258;2022-07-17T17:41:00;3.50;;;1.10;;
5979;SDS011;3016;50.308;8.258;2022-07-17T17:44:01;3.20;;;1.23;;
5979;SDS011;3016;50.308;8.258;2022-07-17T17:47:02;2.43;;;1.30;;
5979;SDS011;3016;50.308;8.258;2022-07-17T17:50:03;3.03;;;1.00;;
5979;SDS011;3016;50.308;8.258;2022-07-17T17:53:04;3.40;;;1.00;;
5979;SDS011;3016;50.308;8.258;2022-07-17T17:56:06;3.40;;;1.20;;
5979;SDS011;3016;50.308;8.258;2022-07-17T17:59:07;5.00;;;1.37;;
5979;SDS011;3016;50.308;8.258;2022-07-17T18:02:08;2.13;;;0.83;;
5979;SDS011;3016;50.308;8.258;2022-07-17T18:05:08;8.40;;;1.53;;
5979;SDS011;3016;50.308;8.258;2022-07-17T18:08:09;2.33;;;1.17;;
5979;SDS011;3016;50.308;8.258;2022-07-17T18:11:10;2.97;;;1.13;;
5979;SDS011;3016;50.308;8.258;2022-07-17T18:14:11;2.97;;;1.03;;
5979;SDS011;3016;50.308;8.258;2022-07-17T18:17:12;2.00;;;1.10;;
5979;SDS011;3016;50.308;8.258;2022-07-17T18:20:13;2.13;;;1.20;;
5979;SDS011;3016;50.308;8.258;2022-07-17T18:23:13;2.30;;;1.10;;
5979;SDS011;3016;50.308;8.258;2022-07-17T18:26:14;2.80;;;1.37;;
5979;SDS011;3016;50.308;8.258;2022-07-17T18:29:16;2.40;;;1.13;;
5979;SDS011;3016;50.308;8.258;2022-07-17T18:32:17;4.30;;;1.60;;
5979;SDS011;3016;50.308;8.258;2022-07-17T18:35:18;4.03;;;1.23;;
5979;SDS011;3016;50.308;8.258;2022-07-17T18:38:19;3.50;;;1.50;;
5979;SDS011;3016;50.308;8.258;2022-07-17T18:41:20;3.80;;;1.90;;
5979;SDS011;3016;50.308;8.258;2022-07-17T18:44:21;3.90;;;1.57;;
5979;SDS011;3016;50.308;8.258;2022-07-17T18:47:22;2.77;;;1.60;;
5979;SDS011;3016;50.308;8.258;2022-07-17T18:50:22;3.80;;;1.30;;